MLBA4: Mulberry River at Mulberry, AR

                                SHEF ID:       MLBA4     Mulberry River near Mulberry. AR
STATION TYPE: Stream Gauge

PRECIP STAGE RIV-FLOW BAT-LOAD
in ft cfs volt
Ccp-Rev Ccp-Rev Ccp-Rev Ccp-Rev
(America/Chicago)
06/26 00:00 0.00 3.52 1464 13.41
06/26 01:00 0.00 3.51 1458 13.41
06/26 02:00 0.00 3.48 1438 13.42
06/26 03:00 0.00 3.48 1438 13.42
06/26 04:00 0.00 3.45 1418 13.42
06/26 05:00 0.00 3.43 1405 13.42
06/26 06:00 0.00 3.39 1380 13.43
06/26 07:00 0.00 3.28 1310 13.42
06/26 08:00 0.00 3.29 1316 13.43
06/26 09:00 0.00 3.33 1341 13.42
06/26 10:00 0.00 3.32 1335 13.42
06/26 11:00 0.00 3.33 1341 13.42
06/26 12:00 0.00 3.31 1329 13.36
06/26 13:00 0.00 3.29 1316 13.41
06/26 14:00 0.00 3.18 1248 13.41
06/26 15:00 0.00 3.17 1242 13.41
06/26 16:00 0.00 3.16 1236 13.41
06/26 17:00 0.00 3.12 1212 13.40
06/26 18:00 0.00 3.14 1224 13.40
06/26 19:00 0.00 3.09 1194 13.39
06/26 20:00 0.00 3.08 1188 13.39
06/26 21:00 0.00 3.06 1176 13.39
06/26 22:00 0.00 3.09 1194 13.39
06/26 23:00 0.00 3.08 1188 13.41
Data processed at Sat 27Jun2026 04:40 GMT

NOTICE: If you are parsing this page

Please convert to using our Data API. Starting early 2026 we will be migrating to: https://water.usace.army.mil with modern pages rendered in JavaScript. When this migration completes you will no longer be able to scrape this page! CWMSDataAPI (CDA)

Timeseries IDs (TSIDs)

TSIDs used from left to right in the data table
MULB.Precip-Inc.Total.1Hour.1Hour.Ccp-Rev
MULB.Stage.Inst.1Hour.0.Ccp-Rev
MULB.Flow.Inst.1Hour.0.Ccp-Rev
MULB.Volt-Battery Load.Inst.1Hour.0.Ccp-Rev

                            

All information presented herein is the property of the government of the United States of America and may be revised or deleted at any time without prior notice. Dissemination of this information without the expressed written consent of the Public Affairs Office, Tulsa District U.S. Army Corps of Engineers is strictly prohibited. These data are gathered electronically and, as presented, have NOT undergone any form of quality control. These data are NOT guaranteed to be valid or correct.